Bristow, Iowa
Current Conditions -  °F | °C
As of 2:55 PM on Sunday 23 Nov 2014 (Local Time) from KCCY Reporting Station
Haze Haze  
Wind Chill: 50°   Ceiling: 400
Heat Index: 50°   Visibility: 4mi
Dew Point: 50°   Wind: 7mph
Humidity: 100%   Direction: 180°S
Pressure: 29.35"   Gusts: NA
Location:  42.77°N, 92.91°W
Report Text: KCCY 232055Z AUTO 18006KT 4SM BR OVC004 10/10 A2935 RMK AO2
Loading
Personal Weather Stations






























Interactive Weather Map New forecast layout! Learn more

10-Day Weather Forecast

Advertisements
Track Severe Weather on mobile